Latest Weather Observations for Yarram Airport

IDV60801

Issued at 11:02 am EDT Sunday 17 February 2019 (issued every 10 minutes, with the page automatically refreshed every 10 minutes)

About weather observations | Map of weather stations | Latest weather observations for VIC | Other Formats
Station Details ID: 085151 Name: YARRAM AIRPORT Lat: -38.56 Lon: 146.75 Height: 17.9 m
Data from the previous 72 hours. | See also: Recent months at Yarram Airport
Date/Time
EDT
Temp
°C
App
Temp
°C
Dew
Point
°C
Rel
Hum
%
Delta-T
°C
Wind Press
QNH
hPa
Press
MSL
hPa
Rain since
9am
mm
Dir  Spd
km/h
Gust
km/h
Spd
kts
Gust
kts
17/11:00am 23.0 23.3 15.1 61 4.7 ESE 7 13 4 7 1012.5 1012.5 0.0
17/10:30am 21.4 21.6 14.6 65 4.0 ESE 7 11 4 6 1012.7 1012.7 0.0
17/10:00am 20.2 20.4 14.6 70 3.3 ENE 7 15 4 8 1012.8 1012.8 0.0
17/09:30am 19.6 20.3 14.6 73 2.9 ENE 4 13 2 7 1013.0 1013.0 0.0
17/09:00am 17.1 18.9 15.4 90 1.0 CALM 0 6 0 3 1013.0 1013.0 0.0
17/08:30am 15.6 16.1 15.6 100 0.0 NW 7 9 4 5 1013.1 1013.1 0.0
17/08:00am 13.7 13.5 13.7 100 0.0 W 7 9 4 5 1013.3 1013.3 0.0
17/07:30am 11.8 12.4 11.8 100 0.0 CALM 0 0 0 0 1013.2 1013.2 0.0
17/07:00am 10.9 11.2 10.9 100 0.0 CALM 0 4 0 2 1012.9 1012.9 0.0
17/06:30am 10.7 9.2 10.7 100 0.0 N 9 9 5 5 1012.6 1012.6 0.0
17/06:00am 10.8 9.4 10.8 100 0.0 NNE 9 9 5 5 1012.5 1012.5 0.0
17/05:30am 10.6 9.5 10.6 100 0.0 N 7 9 4 5 1012.6 1012.6 0.0
17/05:00am 11.1 11.5 11.1 100 0.0 CALM 0 0 0 0 1012.6 1012.6 0.0
17/04:30am 11.1 11.5 11.1 100 0.0 CALM 0 0 0 0 1012.8 1012.8 0.0
17/04:00am 12.0 11.3 12.0 100 0.0 NW 7 7 4 4 1013.2 1013.2 0.0
17/03:30am 12.1 11.6 12.1 100 0.0 NW 6 7 3 4 1013.5 1013.5 0.0
17/03:00am 12.6 13.0 12.6 100 0.0 N 2 7 1 4 1013.8 1013.8 0.0
17/02:30am 13.3 13.6 13.3 100 0.0 WNW 4 6 2 3 1014.1 1014.1 0.0
17/02:00am 13.3 13.0 13.3 100 0.0 W 7 7 4 4 1014.5 1014.5 0.0
17/01:30am 13.5 13.3 13.5 100 0.0 NW 7 9 4 5 1014.8 1014.8 0.0
17/01:00am 14.2 14.2 14.2 100 0.0 WSW 7 9 4 5 1015.2 1015.2 0.0
17/12:30am 14.6 14.9 14.6 100 0.0 WNW 6 7 3 4 1015.7 1015.7 0.0
17/12:00am 15.9 16.2 15.9 100 0.0 WSW 9 11 5 6 1015.7 1015.7 0.0
 
Date/Time
EDT
Temp
°C
App
Temp
°C
Dew
Point
°C
Rel
Hum
%
Delta-T
°C
Wind Press
QNH
hPa
Press
MSL
hPa
Rain since
9am
mm
Dir  Spd
km/h
Gust
km/h
Spd
kts
Gust
kts
16/11:30pm 16.6 17.1 15.6 94 0.6 WNW 7 9 4 5 1016.1 1016.1 0.0
16/11:00pm 17.1 17.3 15.8 92 0.8 WNW 9 11 5 6 1016.4 1016.4 0.0
16/10:30pm 17.2 17.3 15.5 90 1.0 WNW 9 11 5 6 1016.5 1016.5 0.0
16/10:00pm 18.0 16.7 15.8 87 1.3 WSW 17 20 9 11 1016.4 1016.4 0.0
16/09:30pm 18.4 16.6 15.6 84 1.7 SW 19 22 10 12 1016.3 1016.3 0.0
16/09:00pm 18.8 17.9 15.9 83 1.7 WSW 15 17 8 9 1016.2 1016.2 0.0
16/08:30pm 19.6 19.2 16.3 81 2.0 SW 13 17 7 9 1015.7 1015.7 0.0
16/08:00pm 19.8 20.6 17.4 86 1.5 S 9 13 5 7 1015.6 1015.6 0.0
16/07:30pm 19.9 19.9 17.3 85 1.6 S 13 15 7 8 1015.2 1015.2 0.0
16/07:00pm 20.4 20.1 17.4 83 1.8 S 15 22 8 12 1015.1 1015.1 0.0
16/06:30pm 20.5 19.1 17.1 81 2.1 S 20 26 11 14 1015.0 1015.0 0.0
16/06:00pm 21.8 20.3 16.7 73 3.1 SSW 20 26 11 14 1014.9 1014.9 0.0
16/05:30pm 22.3 20.4 16.8 71 3.4 S 22 30 12 16 1014.9 1014.9 0.0
16/05:00pm 22.5 20.5 17.4 73 3.1 SSE 24 33 13 18 1014.8 1014.8 0.0
16/04:30pm 22.4 20.4 17.5 74 3.0 SSE 24 32 13 17 1014.9 1014.9 0.0
16/04:00pm 23.5 21.5 17.3 68 3.8 S 24 32 13 17 1014.9 1014.9 0.0
16/03:30pm 23.3 20.8 17.1 68 3.8 S 26 35 14 19 1015.0 1015.0 0.0
16/03:00pm 24.5 22.4 17.2 63 4.5 S 24 32 13 17 1015.2 1015.2 0.0
16/02:30pm 24.3 22.4 16.8 63 4.6 S 22 30 12 16 1015.5 1015.5 0.0
16/02:00pm 24.1 23.0 17.4 66 4.2 S 19 30 10 16 1015.9 1015.9 0.0
16/01:30pm 24.3 23.5 17.1 64 4.5 S 17 24 9 13 1016.1 1016.1 0.0
16/01:00pm 25.0 24.3 16.4 59 5.3 S 15 20 8 11 1016.4 1016.4 0.0
16/12:30pm 24.6 24.2 16.1 59 5.2 SW 13 20 7 11 1016.8 1016.8 0.0
16/12:00pm 24.5 24.6 16.5 61 4.9 SW 11 22 6 12 1017.2 1017.2 0.0
16/11:30am 24.2 23.5 16.5 62 4.7 SW 15 24 8 13 1017.6 1017.6 0.0
16/11:00am 23.4 23.8 16.2 64 4.4 W 9 13 5 7 1017.8 1017.8 0.0
16/10:30am 21.8 22.4 15.9 69 3.5 SSE 7 11 4 6 1018.1 1018.1 0.0
16/10:00am 21.7 23.0 16.2 71 3.3 NW 4 7 2 4 1018.1 1018.1 0.0
16/09:30am 20.7 20.9 15.7 73 3.0 NE 9 15 5 8 1018.2 1018.2 0.0
16/09:00am 19.8 20.9 17.0 84 1.7 ENE 7 11 4 6 1018.3 1018.3 0.0
16/08:30am 17.9 20.3 16.9 94 0.6 CALM 0 0 0 0 1018.7 1018.7 0.0
16/08:00am 17.1 19.5 16.9 99 0.1 CALM 0 0 0 0 1018.7 1018.7 0.0
16/07:30am 16.4 18.6 16.4 100 0.0 CALM 0 0 0 0 1018.8 1018.8 0.0
16/07:00am 16.3 18.4 16.3 100 0.0 CALM 0 4 0 2 1018.9 1018.9 0.0
16/06:30am 16.2 17.5 16.2 100 0.0 E 4 9 2 5 1018.6 1018.6 0.0
16/06:00am 15.8 17.7 15.8 100 0.0 CALM 0 0 0 0 1018.9 1018.9 0.0
16/05:30am 15.6 17.4 15.6 100 0.0 CALM 0 0 0 0 1019.1 1019.1 0.0
16/05:00am 15.3 16.7 15.3 100 0.0 ENE 2 6 1 3 1019.1 1019.1 0.0
16/04:30am 15.0 15.5 15.0 100 0.0 E 6 7 3 4 1019.4 1019.4 0.0
16/04:00am 14.6 14.9 14.6 100 0.0 ENE 6 7 3 4 1019.8 1019.8 0.0
16/03:30am 14.1 14.3 14.1 100 0.0 NE 6 7 3 4 1020.1 1020.1 0.0
16/03:00am 13.3 14.3 13.3 100 0.0 CALM 0 0 0 0 1020.3 1020.3 0.0
16/02:30am 13.6 13.4 13.6 100 0.0 NE 7 9 4 5 1020.3 1020.3 0.0
16/02:00am 13.7 13.2 13.7 100 0.0 NE 9 9 5 5 1020.8 1020.8 0.0
16/01:30am 13.9 13.4 13.7 99 0.1 NE 9 11 5 6 1021.2 1021.2 0.0
16/01:00am 13.9 13.3 13.6 98 0.2 NE 9 11 5 6 1021.6 1021.6 0.0
16/12:30am 13.6 12.8 13.0 96 0.3 NE 9 9 5 5 1022.2 1022.2 0.0
16/12:00am 13.7 13.1 13.5 99 0.1 NE 9 13 5 7 1022.3 1022.3 0.0
 
Date/Time
EDT
Temp
°C
App
Temp
°C
Dew
Point
°C
Rel
Hum
%
Delta-T
°C
Wind Press
QNH
hPa
Press
MSL
hPa
Rain since
9am
mm
Dir  Spd
km/h
Gust
km/h
Spd
kts
Gust
kts
15/11:30pm 13.3 12.6 13.1 99 0.1 NNE 9 13 5 7 1022.6 1022.6 0.0
15/11:00pm 13.2 12.3 12.7 97 0.3 NNE 9 11 5 6 1023.0 1023.0 0.0
15/10:30pm 13.7 13.2 12.6 93 0.6 NE 7 9 4 5 1023.3 1023.3 0.0
15/10:00pm 14.7 14.2 12.6 87 1.1 NE 7 7 4 4 1023.4 1023.4 0.0
15/09:30pm 15.6 14.8 12.9 84 1.5 ENE 9 11 5 6 1023.4 1023.4 0.0
15/09:00pm 16.2 15.8 12.9 81 1.8 ENE 7 9 4 5 1023.3 1023.3 0.0
15/08:30pm 16.8 16.0 12.9 78 2.2 E 9 13 5 7 1023.0 1023.0 0.0
15/08:00pm 17.4 15.8 12.7 74 2.6 E 13 17 7 9 1022.8 1022.8 0.0
15/07:30pm 18.1 16.4 12.3 69 3.2 E 13 20 7 11 1022.6 1022.6 0.0
15/07:00pm 18.3 15.9 12.5 69 3.2 ESE 17 20 9 11 1022.4 1022.4 0.0
15/06:30pm 18.8 16.4 12.8 68 3.4 ESE 17 22 9 12 1022.4 1022.4 0.0
15/06:00pm 19.3 16.9 12.6 65 3.7 ESE 17 22 9 12 1022.4 1022.4 0.0
15/05:30pm 20.2 17.4 12.7 62 4.2 ESE 19 26 10 14 1022.4 1022.4 0.0
15/05:00pm 20.4 18.1 12.9 62 4.2 SE 17 24 9 13 1022.3 1022.3 0.0
15/04:30pm 21.3 19.0 13.0 59 4.7 SE 17 26 9 14 1022.5 1022.5 0.0
15/04:00pm 22.0 19.4 13.1 57 5.1 SE 19 24 10 13 1022.5 1022.5 0.0
15/03:30pm 22.3 19.5 13.1 56 5.3 SE 20 28 11 15 1022.6 1022.6 0.0
15/03:00pm 22.0 19.2 13.1 57 5.1 SE 20 28 11 15 1022.7 1022.7 0.0
15/02:30pm 21.5 18.8 13.4 60 4.7 SSE 20 30 11 16 1022.8 1022.8 0.0
15/02:00pm 22.3 20.2 13.6 58 5.0 S 17 26 9 14 1023.0 1023.0 0.0
15/01:30pm 22.1 22.0 14.0 60 4.7 SSE 7 22 4 12 1023.2 1023.2 0.0
15/01:00pm 21.6 20.5 13.0 58 4.9 SSE 11 19 6 10 1023.5 1023.5 0.0
15/12:30pm 21.6 20.6 13.5 60 4.7 S 11 19 6 10 1023.8 1023.8 0.0
15/12:00pm 21.1 19.4 13.5 62 4.4 S 15 20 8 11 1024.2 1024.2 0.0
15/11:30am 19.5 19.0 13.7 69 3.3 WSW 9 15 5 8 1024.5 1024.5 0.0
15/11:00am 18.5 17.1 13.4 72 2.9 SW 13 19 7 10 1024.6 1024.6 0.0
15/10:30am 18.4 17.7 13.1 71 3.0 WSW 9 15 5 8 1024.6 1024.6 0.0
15/10:00am 18.2 17.2 13.5 74 2.7 WSW 11 17 6 9 1024.6 1024.6 0.0
15/09:30am 17.9 17.3 13.6 76 2.4 WSW 9 15 5 8 1024.5 1024.5 0.0
15/09:00am 17.6 16.7 13.7 78 2.2 W 11 15 6 8 1024.3 1024.3 0.0
15/08:30am 16.9 16.1 13.0 78 2.2 NNW 9 11 5 6 1024.2 1024.2 0.0
15/08:00am 16.3 16.1 13.6 84 1.5 NNW 7 11 4 6 1023.9 1023.9 0.0
15/07:30am 15.6 15.5 13.4 87 1.2 NNW 6 9 3 5 1023.7 1023.7 0.0
15/07:00am 15.1 15.0 13.8 92 0.7 N 7 9 4 5 1023.4 1023.4 0.0
15/06:30am 15.0 14.4 13.4 90 0.9 NW 9 11 5 6 1023.2 1023.2 0.0
15/06:00am 14.7 13.9 12.9 89 1.0 NNW 9 9 5 5 1023.1 1023.1 0.0
15/05:30am 14.8 13.7 13.2 90 0.9 NW 11 13 6 7 1022.9 1022.9 0.0
15/05:00am 14.6 14.4 13.6 94 0.6 NW 7 11 4 6 1022.7 1022.7 0.0
15/04:30am 13.9 13.0 12.6 92 0.7 NNW 9 11 5 6 1022.6 1022.6 0.0
15/04:00am 13.6 12.9 13.3 98 0.2 NNW 9 11 5 6 1022.8 1022.8 0.0
15/03:30am 12.8 11.9 12.5 98 0.2 NNW 9 11 5 6 1022.8 1022.8 0.0
15/03:00am 13.0 12.1 12.7 98 0.2 NNW 9 11 5 6 1022.8 1022.8 0.0
15/02:30am 12.6 11.7 12.6 100 0.0 N 9 11 5 6 1022.7 1022.7 0.0
15/02:00am 12.4 11.2 11.6 95 0.4 N 9 11 5 6 1022.7 1022.7 0.0
15/01:30am 14.0 12.8 12.9 93 0.6 NW 11 15 6 8 1022.7 1022.7 0.0
15/01:00am 14.2 12.2 12.8 91 0.8 WNW 15 17 8 9 1022.7 1022.7 0.0
15/12:30am 14.0 12.4 12.9 93 0.6 WNW 13 17 7 9 1022.5 1022.5 0.0
15/12:00am 14.2 12.7 13.1 93 0.6 WNW 13 15 7 8 1022.5 1022.5 0.0
 
Date/Time
EDT
Temp
°C
App
Temp
°C
Dew
Point
°C
Rel
Hum
%
Delta-T
°C
Wind Press
QNH
hPa
Press
MSL
hPa
Rain since
9am
mm
Dir  Spd
km/h
Gust
km/h
Spd
kts
Gust
kts
14/11:30pm 14.6 13.1 13.0 90 0.9 W 13 15 7 8 1022.7 1022.7 0.0
14/11:00pm 14.4 12.7 12.6 89 1.0 WNW 13 15 7 8 1022.7 1022.7 0.0
14/10:30pm 14.6 13.2 12.3 86 1.3 W 11 13 6 7 1022.5 1022.5 0.0
14/10:00pm 15.2 13.8 12.2 82 1.6 WSW 11 13 6 7 1022.4 1022.4 0.0
14/09:30pm 16.0 13.5 12.2 78 2.1 WSW 17 20 9 11 1022.0 1022.0 0.0
14/09:00pm 16.5 13.5 11.9 74 2.5 WSW 19 22 10 12 1021.5 1021.5 0.0
14/08:30pm 16.9 14.0 12.4 75 2.5 SW 19 26 10 14 1021.1 1021.1 0.0
14/08:00pm 17.8 13.6 12.5 71 2.9 SW 26 33 14 18 1020.7 1020.7 0.0
14/07:30pm 19.4 13.9 10.7 57 4.7 SW 30 35 16 19 1020.2 1020.2 0.0
14/07:00pm 19.5 13.5 10.2 55 5.0 SW 32 46 17 25 1019.9 1019.9 0.0
14/06:30pm 20.6 15.2 11.0 54 5.3 SW 30 43 16 23 1019.5 1019.5 0.0
14/06:00pm 21.1 15.0 10.3 50 5.9 WSW 33 46 18 25 1019.2 1019.2 0.0
14/05:30pm 21.8 15.7 10.6 49 6.1 SW 33 46 18 25 1018.9 1018.9 0.0
14/05:24pm 22.2 16.9 10.0 46 6.6 WSW 28 46 15 25 1018.9 1018.9 0.0
14/05:00pm 22.4 16.9 9.2 43 7.1 WSW 28 37 15 20 1018.8 1018.8 0.0
14/04:30pm 22.7 16.5 9.5 43 7.1 WSW 32 41 17 22 1018.6 1018.6 0.0
14/04:00pm 22.3 15.9 8.4 41 7.3 W 32 43 17 23 1018.4 1018.4 0.0
14/03:30pm 22.1 16.2 8.9 43 7.0 W 30 46 16 25 1018.3 1018.3 0.0
14/03:00pm 22.6 17.2 9.4 43 7.1 W 28 39 15 21 1018.3 1018.3 0.0
14/02:30pm 22.5 17.0 9.3 43 7.1 W 28 39 15 21 1018.4 1018.4 0.0
14/02:00pm 21.9 16.4 9.1 44 6.8 W 28 35 15 19 1018.4 1018.4 0.0
14/01:30pm 20.4 14.9 9.3 49 5.9 W 28 37 15 20 1018.6 1018.6 0.0
14/01:00pm 19.7 15.2 8.7 49 5.7 W 22 35 12 19 1018.4 1018.4 0.0
14/12:30pm 19.7 14.2 9.0 50 5.6 W 28 44 15 24 1018.4 1018.4 0.0
14/12:00pm 19.0 13.4 8.6 51 5.4 WNW 28 39 15 21 1018.3 1018.3 0.0
14/11:30am 19.4 13.9 9.0 51 5.5 W 28 39 15 21 1018.3 1018.3 0.0

Other Formats:

Comma delimited format used in spreadsheet applications
http://www.bom.gov.au/fwo/IDV60801/IDV60801.95890.axf

JavaScript Object Notation format (JSON) in row-major order
http://www.bom.gov.au/fwo/IDV60801/IDV60801.95890.json